Time;durP1;ratioP1;P1;durP2;ratioP2;P2;SDS_P1;SDS_P2;PMS_P1;PMS_P2;Temp;Humidity;BMP_temperature;BMP_pressure;BME280_temperature;BME280_humidity;BME280_pressure;Samples;Min_cycle;Max_cycle;Signal;HPM_P1;HPM_P2
2021/11/24 00:01:34;;;;;;;2.28;2.10;;;;;;;-3.01;98.02;99771.22;4962459;28;20358;-67
2021/11/24 00:03:59;;;;;;;7.97;1.35;;;;;;;-2.95;97.66;99766.47;4972829;28;20109;-67
2021/11/24 00:06:25;;;;;;;2.80;1.50;;;;;;;-2.92;97.44;99765.75;4974070;28;20038;-67
2021/11/24 00:08:50;;;;;;;1.08;1.08;;;;;;;-2.92;97.54;99760.69;4969629;28;20039;-67
2021/11/24 00:11:16;;;;;;;1.50;1.50;;;;;;;-2.90;97.56;99764.16;4962259;28;20023;-67
2021/11/24 00:13:41;;;;;;;1.10;1.10;;;;;;;-2.82;97.55;99762.00;4954273;29;20473;-67
2021/11/24 00:16:07;;;;;;;0.75;0.75;;;;;;;-2.66;98.12;99769.59;4954304;29;20064;-67
2021/11/24 00:18:33;;;;;;;1.48;1.35;;;;;;;-2.81;97.02;99758.69;4954368;29;20047;-67
2021/11/24 00:20:58;;;;;;;1.52;1.42;;;;;;;-2.69;97.40;99754.25;4954016;28;20034;-67
2021/11/24 00:23:23;;;;;;;1.48;1.40;;;;;;;-2.76;96.56;99759.78;4954067;29;20118;-67
2021/11/24 00:25:49;;;;;;;2.38;1.88;;;;;;;-2.03;99.43;99758.34;4953762;28;20102;-67
2021/11/24 00:28:14;;;;;;;1.42;1.42;;;;;;;-2.34;98.09;99764.47;4954223;29;20110;-67
2021/11/24 00:30:39;;;;;;;1.83;1.73;;;;;;;-2.63;96.23;99770.63;4961464;28;20031;-67
2021/11/24 00:33:05;;;;;;;2.63;2.40;;;;;;;-2.71;96.90;99771.03;4965398;28;20037;-68
2021/11/24 00:35:30;;;;;;;1.63;1.60;;;;;;;-2.39;98.84;99773.50;4973523;28;20077;-68
2021/11/24 00:37:56;;;;;;;2.58;2.35;;;;;;;-2.24;96.08;99775.06;4972158;28;20034;-68
2021/11/24 00:40:21;;;;;;;1.45;1.45;;;;;;;-2.19;96.09;99764.31;4966149;28;20074;-68
2021/11/24 00:42:46;;;;;;;4.22;3.83;;;;;;;-2.22;96.45;99773.50;4970604;28;20029;-67
2021/11/24 00:45:12;;;;;;;1.83;1.80;;;;;;;-2.39;96.02;99765.91;4973052;28;20138;-70
2021/11/24 00:47:37;;;;;;;1.73;1.67;;;;;;;-2.18;96.48;99755.03;4973360;28;20030;-68
2021/11/24 00:50:05;;;;;;;0.95;0.95;;;;;;;-2.30;95.94;99764.63;4972897;28;20094;-69
2021/11/24 00:52:30;;;;;;;1.55;1.50;;;;;;;-2.26;96.19;99761.44;4973206;28;20053;-69
2021/11/24 00:54:57;;;;;;;4.03;1.88;;;;;;;-2.14;95.96;99762.00;4973125;28;20476;-68
2021/11/24 00:57:22;;;;;;;16.02;1.73;;;;;;;-2.15;95.00;99765.34;4973137;28;20023;-68
2021/11/24 00:59:48;;;;;;;2.53;2.33;;;;;;;-2.74;93.41;99755.69;4964975;28;20030;-68
2021/11/24 05:16:48;;;;;;;1.42;1.42;;;;;;;-4.90;98.77;99625.13;5312074;23;19922;-68
2021/11/24 05:19:18;;;;;;;2.38;1.77;;;;;;;-4.86;98.72;99631.25;4957330;28;20448;-68
2021/11/24 05:21:45;;;;;;;1.20;1.20;;;;;;;-4.78;98.42;99632.56;4957616;28;20481;-68
2021/11/24 05:24:11;;;;;;;1.20;1.20;;;;;;;-4.72;98.40;99636.28;4957673;28;20038;-68
2021/11/24 05:26:37;;;;;;;1.88;1.77;;;;;;;-4.62;98.21;99631.75;4957424;28;20122;-69
2021/11/24 05:29:03;;;;;;;4.60;3.25;;;;;;;-4.54;98.32;99626.34;4957814;28;20034;-68
2021/11/24 05:31:28;;;;;;;1.42;1.42;;;;;;;-4.47;98.31;99623.34;4938889;28;20027;-66
2021/11/24 05:33:54;;;;;;;1.60;1.50;;;;;;;-4.37;98.40;99623.84;4954714;29;20039;-65
2021/11/24 05:36:21;;;;;;;2.03;1.92;;;;;;;-4.32;98.83;99632.56;4957231;28;20082;-65
2021/11/24 05:38:46;;;;;;;0.90;0.90;;;;;;;-4.25;98.63;99624.53;4957622;28;20078;-65
2021/11/24 05:41:12;;;;;;;1.00;1.00;;;;;;;-4.16;98.56;99615.78;4957108;28;20496;-65
2021/11/24 05:43:37;;;;;;;1.02;1.02;;;;;;;-4.13;98.76;99615.91;4957300;28;20114;-65
2021/11/24 05:46:12;;;;;;;2.05;1.95;;;;;;;-4.07;98.69;99610.31;4957034;28;20063;-65
2021/11/24 05:48:38;;;;;;;1.45;1.40;;;;;;;-4.01;98.90;99610.66;4957265;28;20031;-66
2021/11/24 05:51:03;;;;;;;1.13;1.13;;;;;;;-4.05;98.91;99613.81;4957168;28;20035;-64
2021/11/24 05:53:28;;;;;;;2.97;2.63;;;;;;;-3.98;98.67;99599.81;4957119;29;20550;-65
2021/11/24 05:55:54;;;;;;;1.20;1.20;;;;;;;-4.01;98.81;99605.59;4956947;28;20065;-65
2021/11/24 05:58:21;;;;;;;2.38;2.17;;;;;;;-4.02;98.85;99601.28;4956999;29;20070;-65
2021/11/24 06:00:46;;;;;;;1.73;1.67;;;;;;;-4.01;98.92;99600.53;4948640;28;20114;-65
2021/11/24 06:03:12;;;;;;;1.10;1.10;;;;;;;-3.99;98.87;99596.41;4956674;28;20062;-65
2021/11/24 06:05:37;;;;;;;2.53;2.42;;;;;;;-3.88;98.62;99597.84;4956824;28;20035;-65
2021/11/24 06:08:03;;;;;;;0.93;0.93;;;;;;;-3.86;98.42;99594.53;4956782;28;20035;-65
2021/11/24 06:10:29;;;;;;;1.45;1.33;;;;;;;-3.82;98.37;99596.41;4956656;28;20031;-65
2021/11/24 06:12:55;;;;;;;1.00;1.00;;;;;;;-3.72;98.40;99591.06;4956674;28;20035;-63
2021/11/24 06:15:20;;;;;;;1.63;1.63;;;;;;;-3.68;98.60;99591.25;4956396;29;20026;-64
2021/11/24 06:17:47;;;;;;;1.60;1.60;;;;;;;-3.56;98.95;99590.16;4956563;29;20432;-63
2021/11/24 06:20:14;;;;;;;1.90;1.80;;;;;;;-3.45;98.74;99581.44;4956436;28;20039;-63
2021/11/24 06:22:40;;;;;;;2.30;2.20;;;;;;;-3.37;98.87;99583.56;4956000;28;20058;-64
2021/11/24 06:25:07;;;;;;;1.88;1.77;;;;;;;-3.30;98.72;99583.88;4956470;28;20033;-63
2021/11/24 06:27:33;;;;;;;1.88;1.77;;;;;;;-3.22;98.74;99580.94;4956336;28;20090;-63
2021/11/24 06:29:58;;;;;;;1.42;1.42;;;;;;;-3.06;98.68;99574.06;4953748;28;20035;-64
2021/11/24 06:32:23;;;;;;;1.85;1.35;;;;;;;-2.95;98.70;99567.84;4950582;29;20031;-63
2021/11/24 06:34:49;;;;;;;1.23;1.23;;;;;;;-2.80;99.14;99570.25;4956310;28;20020;-63
2021/11/24 06:37:14;;;;;;;4.20;2.53;;;;;;;-2.69;99.61;99571.63;4956142;28;20066;-63
2021/11/24 06:39:39;;;;;;;2.80;2.60;;;;;;;-2.60;99.63;99567.00;4956065;28;20034;-63
2021/11/24 06:42:05;;;;;;;2.20;2.10;;;;;;;-2.50;100.00;99570.84;4956242;28;20077;-63
2021/11/24 06:44:30;;;;;;;1.25;1.25;;;;;;;-2.40;99.93;99568.78;4955920;28;20031;-63
2021/11/24 06:46:55;;;;;;;2.53;2.42;;;;;;;-2.34;100.00;99566.53;4956065;28;20402;-64
2021/11/24 06:49:21;;;;;;;11.50;1.88;;;;;;;-2.25;100.00;99565.22;4955878;29;20037;-64
2021/11/24 06:51:47;;;;;;;2.03;1.88;;;;;;;-2.20;100.00;99568.81;4956055;28;20094;-63
2021/11/24 06:54:12;;;;;;;1.08;1.08;;;;;;;-2.18;100.00;99563.00;4955935;28;20439;-64
2021/11/24 06:56:38;;;;;;;2.10;1.98;;;;;;;-2.08;100.00;99564.28;4955845;29;20031;-63
2021/11/24 06:59:04;;;;;;;1.58;1.50;;;;;;;-2.02;100.00;99564.56;4955441;29;20029;-63
2021/11/24 07:01:29;;;;;;;3.47;3.17;;;;;;;-2.07;99.96;99555.88;4948001;28;20101;-63
2021/11/24 07:03:55;;;;;;;3.38;3.17;;;;;;;-2.04;99.80;99556.00;4955799;28;20055;-64
2021/11/24 07:06:20;;;;;;;2.08;1.75;;;;;;;-1.99;100.00;99549.47;4955892;29;20034;-63
2021/11/24 07:08:45;;;;;;;2.75;2.55;;;;;;;-1.89;99.95;99561.75;4955849;28;20118;-63
2021/11/24 07:11:11;;;;;;;2.03;1.92;;;;;;;-1.94;99.61;99568.31;4955488;29;20424;-63
2021/11/24 07:13:36;;;;;;;2.90;2.75;;;;;;;-1.83;99.28;99562.06;4955516;28;20027;-64
2021/11/24 07:16:01;;;;;;;1.70;1.60;;;;;;;-1.77;98.75;99563.13;4955309;29;20026;-64
2021/11/24 07:18:26;;;;;;;3.78;2.78;;;;;;;-1.84;98.54;99560.31;4955578;29;20027;-64
2021/11/24 07:20:52;;;;;;;4.03;2.08;;;;;;;-1.78;98.51;99564.78;4955297;29;20503;-63
2021/11/24 07:23:17;;;;;;;4.65;3.58;;;;;;;-1.75;98.21;99558.97;4955620;28;20063;-64
2021/11/24 07:25:43;;;;;;;7.82;3.65;;;;;;;-1.70;98.56;99565.09;4955306;28;20047;-63
2021/11/24 07:28:08;;;;;;;2.53;2.15;;;;;;;-1.72;98.49;99559.97;4955372;29;20402;-64
2021/11/24 07:30:33;;;;;;;3.63;3.13;;;;;;;-1.56;98.17;99556.41;4948502;29;20036;-64
2021/11/24 07:32:59;;;;;;;3.83;3.53;;;;;;;-1.49;97.98;99553.34;4954337;29;20023;-64
2021/11/24 07:35:24;;;;;;;3.97;3.33;;;;;;;-1.45;97.83;99550.13;4954226;28;20500;-64
2021/11/24 07:37:50;;;;;;;2.75;2.65;;;;;;;-1.44;97.67;99551.84;4955290;28;20173;-64
2021/11/24 07:40:15;;;;;;;4.05;3.63;;;;;;;-1.31;97.46;99550.66;4954941;28;20027;-64
2021/11/24 07:42:41;;;;;;;6.32;2.20;;;;;;;-1.25;97.12;99543.31;4955114;29;20204;-64
2021/11/24 07:45:07;;;;;;;1.58;1.58;;;;;;;-1.18;96.50;99535.13;4954914;28;20385;-64
2021/11/24 07:47:33;;;;;;;3.55;3.22;;;;;;;-1.06;96.39;99524.59;4954959;28;20507;-65
2021/11/24 07:49:59;;;;;;;1.80;1.70;;;;;;;-0.95;95.79;99533.50;4954765;28;20035;-65
2021/11/24 07:52:25;;;;;;;2.05;1.95;;;;;;;-0.76;95.94;99539.34;4954960;28;20027;-65
2021/11/24 07:54:50;;;;;;;3.20;3.05;;;;;;;-0.74;95.33;99538.56;4954883;28;20453;-65
2021/11/24 07:57:18;;;;;;;2.83;1.27;;;;;;;-0.64;95.19;99535.56;4954642;28;20035;-65
2021/11/24 07:59:43;;;;;;;2.60;2.45;;;;;;;-0.69;94.77;99531.13;4954155;28;20460;-65
2021/11/24 08:02:09;;;;;;;1.95;1.85;;;;;;;-0.70;94.84;99529.38;4947042;29;20031;-65
2021/11/24 08:04:34;;;;;;;2.30;2.20;;;;;;;-0.44;95.77;99532.91;4954608;28;20027;-65
2021/11/24 08:07:02;;;;;;;3.72;3.42;;;;;;;-0.48;94.43;99528.50;4954537;28;20054;-66
2021/11/24 08:09:27;;;;;;;2.28;1.85;;;;;;;-0.42;94.31;99522.00;4954509;28;20035;-65
2021/11/24 08:11:54;;;;;;;2.35;2.15;;;;;;;-0.13;93.99;99514.56;4955015;29;20057;-66
2021/11/24 08:14:19;;;;;;;2.15;2.10;;;;;;;0.13;93.61;99513.81;4954530;28;20027;-65
2021/11/24 08:16:44;;;;;;;2.72;2.58;;;;;;;0.55;91.67;99507.59;4954258;28;20085;-65
2021/11/24 08:19:09;;;;;;;3.47;2.60;;;;;;;0.91;91.93;99513.03;4954485;28;20089;-65
2021/11/24 08:21:35;;;;;;;4.18;3.45;;;;;;;1.02;90.45;99506.59;4954385;29;20542;-65
2021/11/24 08:24:00;;;;;;;2.05;1.95;;;;;;;1.01;91.30;99505.72;4954257;28;20027;-66
2021/11/24 08:26:26;;;;;;;5.88;4.00;;;;;;;1.26;90.33;99497.16;4954285;29;20199;-65
2021/11/24 08:28:51;;;;;;;9.10;4.05;;;;;;;1.46;89.28;99499.44;4953963;29;20027;-65
2021/11/24 08:31:17;;;;;;;2.03;1.88;;;;;;;1.58;88.49;99493.81;4946117;28;20411;-65
2021/11/24 08:33:42;;;;;;;2.33;2.22;;;;;;;1.14;87.42;99501.88;4954321;28;20480;-65
2021/11/24 08:36:07;;;;;;;1.73;1.65;;;;;;;1.19;86.63;99502.88;4954183;28;20023;-65
2021/11/24 08:38:33;;;;;;;2.33;2.20;;;;;;;1.30;88.42;99500.66;4954170;29;20027;-65
2021/11/24 08:40:58;;;;;;;6.53;4.20;;;;;;;1.71;88.44;99501.88;4954005;28;20030;-65
2021/11/24 08:43:24;;;;;;;2.55;2.33;;;;;;;1.61;87.86;99499.91;4954403;28;20058;-65
2021/11/24 08:45:49;;;;;;;2.45;2.28;;;;;;;1.47;85.48;99496.94;4931827;28;20028;-66
2021/11/24 08:48:15;;;;;;;2.88;2.40;;;;;;;1.39;85.21;99493.28;4939793;29;20039;-66
2021/11/24 08:50:40;;;;;;;3.17;2.92;;;;;;;1.54;84.60;99486.06;4876930;28;20058;-66
2021/11/24 08:53:05;;;;;;;4.28;3.53;;;;;;;1.38;85.11;99488.13;4933117;29;20031;-65
2021/11/24 08:55:31;;;;;;;3.22;3.00;;;;;;;1.56;85.33;99486.13;4953715;28;20027;-65
2021/11/24 08:57:57;;;;;;;3.13;2.92;;;;;;;1.55;87.00;99484.41;4953696;28;20528;-66
2021/11/24 09:00:23;;;;;;;2.28;1.95;;;;;;;1.64;85.79;99479.53;4948156;28;20023;-65
2021/11/24 09:02:50;;;;;;;4.28;3.28;;;;;;;1.74;86.84;99481.56;4951467;29;20027;-65
2021/11/24 09:05:17;;;;;;;4.47;2.55;;;;;;;2.03;85.54;99484.03;4953662;28;20050;-66
2021/11/24 09:07:43;;;;;;;2.00;1.83;;;;;;;2.28;84.00;99481.34;4953744;28;20038;-65
2021/11/24 09:10:08;;;;;;;3.70;2.88;;;;;;;1.78;84.08;99473.13;4953450;28;20165;-66
2021/11/24 09:12:34;;;;;;;2.55;2.45;;;;;;;1.65;84.98;99468.53;4953576;28;20110;-65
2021/11/24 09:14:59;;;;;;;1.52;1.45;;;;;;;1.86;84.90;99459.72;4953776;29;20320;-65
2021/11/24 09:17:24;;;;;;;2.10;1.88;;;;;;;2.08;83.50;99459.50;4953581;29;20500;-65
2021/11/24 09:19:50;;;;;;;8.52;3.50;;;;;;;2.07;84.22;99460.28;4953521;29;20030;-66
2021/11/24 09:22:17;;;;;;;2.20;2.00;;;;;;;2.10;83.14;99449.31;4953679;28;20038;-66
2021/11/24 09:24:42;;;;;;;3.28;2.85;;;;;;;2.01;84.44;99449.91;4953510;28;20027;-66
2021/11/24 09:27:18;;;;;;;2.78;2.03;;;;;;;2.14;83.39;99436.63;4953544;28;20038;-65
2021/11/24 09:29:47;;;;;;;2.92;2.72;;;;;;;2.65;82.36;99441.31;4951792;29;20027;-65
2021/11/24 09:32:12;;;;;;;1.58;1.58;;;;;;;2.68;82.08;99438.84;4946433;29;20031;-69
2021/11/24 09:34:37;;;;;;;3.88;3.13;;;;;;;2.55;82.73;99430.00;4953679;28;20043;-64
2021/11/24 09:37:03;;;;;;;2.40;2.30;;;;;;;2.80;81.61;99426.34;4953415;29;20110;-64
2021/11/24 09:39:28;;;;;;;2.78;2.58;;;;;;;3.24;80.26;99421.38;4953236;28;20079;-64
2021/11/24 09:41:57;;;;;;;1.67;1.67;;;;;;;2.98;80.88;99419.91;4953474;29;20385;-65
2021/11/24 09:44:22;;;;;;;2.63;2.40;;;;;;;2.99;81.12;99416.53;4953647;28;20027;-66
2021/11/24 09:46:50;;;;;;;3.15;2.97;;;;;;;2.90;81.12;99408.63;4953502;28;20042;-66
2021/11/24 09:49:20;;;;;;;2.58;2.33;;;;;;;2.82;80.80;99404.22;4953411;28;20027;-65
2021/11/24 09:51:45;;;;;;;;;;;;;;;3.31;79.70;99400.16;4953840;28;20031;-65
2021/11/24 09:54:13;;;;;;;2.45;2.28;;;;;;;3.98;78.67;99389.53;4953429;28;19910;-69
2021/11/24 09:56:41;;;;;;;3.10;2.78;;;;;;;3.96;76.05;99380.91;4953432;28;20034;-69
2021/11/24 09:59:07;;;;;;;3.88;2.53;;;;;;;5.67;70.99;99365.47;4956320;28;20026;-65
2021/11/24 10:01:33;;;;;;;2.63;2.42;;;;;;;4.61;72.86;99373.47;4948726;28;20134;-64
2021/11/24 10:04:00;;;;;;;4.05;2.75;;;;;;;4.85;71.76;99370.41;4956955;28;20033;-64
2021/11/24 10:06:27;;;;;;;3.67;2.75;;;;;;;5.52;68.97;99367.88;4956671;28;20118;-65
2021/11/24 10:08:53;;;;;;;2.55;2.00;;;;;;;5.20;70.10;99365.75;4956590;28;20035;-64
2021/11/24 10:11:19;;;;;;;2.15;1.95;;;;;;;4.61;71.02;99373.47;4956612;28;20042;-64
2021/11/24 10:13:47;;;;;;;2.20;2.00;;;;;;;4.21;73.50;99367.72;4922154;28;20102;-65
2021/11/24 10:16:25;;;;;;;2.08;1.88;;;;;;;3.77;73.89;99365.22;4956299;29;20094;-64
2021/11/24 10:19:06;;;;;;;3.97;3.17;;;;;;;3.68;75.18;99354.81;4956477;28;20039;-65
2021/11/24 10:21:32;;;;;;;3.17;2.97;;;;;;;4.08;74.24;99351.25;4956644;28;20035;-70
2021/11/24 10:24:05;;;;;;;3.55;1.73;;;;;;;3.99;74.81;99339.97;4956815;28;20106;-66
2021/11/24 10:26:38;;;;;;;2.15;1.80;;;;;;;3.71;75.20;99339.47;4956571;28;20034;-69
2021/11/24 10:29:08;;;;;;;5.05;2.22;;;;;;;3.26;76.77;99340.31;4956180;28;20038;-65
2021/11/24 10:31:43;;;;;;;2.63;2.13;;;;;;;3.42;77.59;99332.94;4948341;28;20026;-65
2021/11/24 10:34:20;;;;;;;2.45;2.25;;;;;;;3.20;78.53;99324.84;4956334;28;20027;-65
2021/11/24 10:37:00;;;;;;;2.35;2.00;;;;;;;3.06;78.08;99331.38;4956331;28;20393;-65
2021/11/24 10:39:28;;;;;;;2.40;2.03;;;;;;;2.80;78.80;99325.69;4956136;28;20034;-65
2021/11/24 10:42:05;;;;;;;3.08;2.20;;;;;;;2.67;79.78;99327.13;4956166;28;20030;-65
2021/11/24 10:44:32;;;;;;;3.58;3.00;;;;;;;2.91;79.49;99305.47;4956105;28;20030;-65
2021/11/24 10:46:59;;;;;;;2.33;2.22;;;;;;;2.89;79.02;99309.66;4956049;28;20039;-65
2021/11/24 10:49:42;;;;;;;2.00;1.90;;;;;;;3.00;78.32;99295.41;4955804;28;20030;-65
2021/11/24 10:52:15;;;;;;;1.67;1.58;;;;;;;3.37;77.16;99283.31;4956174;28;20042;-65
2021/11/24 10:54:42;;;;;;;2.08;1.95;;;;;;;3.85;74.93;99286.75;4955710;28;20103;-65
2021/11/24 10:57:10;;;;;;;2.70;2.50;;;;;;;5.03;71.48;99269.63;4955867;28;20085;-65
2021/11/24 10:59:44;;;;;;;5.38;2.25;;;;;;;5.41;67.31;99258.13;4955418;28;20074;-65
2021/11/24 11:02:23;;;;;;;1.88;1.75;;;;;;;5.34;68.22;99266.59;4948032;29;20118;-65
2021/11/24 11:05:14;;;;;;;1.88;1.73;;;;;;;5.87;66.01;99258.53;4955580;28;20476;-65
2021/11/24 11:07:43;;;;;;;3.85;3.03;;;;;;;6.62;64.25;99250.50;4955781;28;20038;-65
2021/11/24 11:10:22;;;;;;;4.05;2.53;;;;;;;6.01;63.96;99250.13;4955366;28;20031;-66
2021/11/24 11:13:05;;;;;;;2.57;2.37;;;;;;;5.61;65.67;99247.16;4955562;28;20121;-65
2021/11/24 11:15:36;;;;;;;3.05;1.77;;;;;;;5.58;66.64;99240.28;4955217;28;20034;-65
2021/11/24 11:18:06;;;;;;;4.40;2.47;;;;;;;5.46;66.78;99240.16;4955671;29;20023;-65
2021/11/24 11:21:09;;;;;;;2.30;2.20;;;;;;;7.49;60.87;99222.47;4955341;28;20086;-66
2021/11/24 11:23:36;;;;;;;2.22;1.98;;;;;;;8.39;55.87;99225.06;4953511;28;20042;-66
2021/11/24 11:26:05;;;;;;;4.70;3.50;;;;;;;8.09;57.08;99219.94;4954971;28;20031;-66
2021/11/24 11:28:34;;;;;;;3.38;3.10;;;;;;;10.09;52.34;99205.16;4955523;28;20034;-66
2021/11/24 11:31:02;;;;;;;2.27;1.50;;;;;;;9.40;51.98;99208.28;4947561;28;20143;-69
2021/11/24 11:33:37;;;;;;;3.13;2.90;;;;;;;9.74;51.85;99201.16;4955202;28;20027;-69
2021/11/24 11:36:08;;;;;;;4.30;2.75;;;;;;;10.01;49.70;99194.88;4955025;28;20031;-69
2021/11/24 11:38:55;;;;;;;2.20;2.05;;;;;;;9.13;51.61;99204.13;4955041;28;20065;-69
2021/11/24 11:41:26;;;;;;;2.33;2.13;;;;;;;10.62;49.37;99186.50;4954376;29;20074;-69
2021/11/24 11:43:52;;;;;;;3.53;2.60;;;;;;;10.13;48.92;99188.72;4905689;28;20125;-69
2021/11/24 11:46:24;;;;;;;2.05;1.80;;;;;;;10.34;49.09;99185.94;4954763;28;20053;-69
2021/11/24 11:48:53;;;;;;;3.20;2.90;;;;;;;11.76;46.87;99175.41;4954825;28;20069;-69
2021/11/24 11:51:29;;;;;;;2.95;2.45;;;;;;;12.79;42.89;99166.59;4954772;28;20444;-69
2021/11/24 11:53:55;;;;;;;4.03;2.10;;;;;;;12.23;42.15;99165.94;4879106;28;20035;-69
2021/11/24 11:56:34;;;;;;;7.72;3.08;;;;;;;11.58;44.71;99156.66;4932936;28;20130;-69
2021/11/24 11:59:00;;;;;;;1.83;1.63;;;;;;;11.47;45.14;99153.38;4954251;28;20436;-69
2021/11/24 12:01:41;;;;;;;2.58;2.38;;;;;;;10.41;48.84;99150.50;4946482;28;20121;-68
2021/11/24 12:04:16;;;;;;;2.38;2.17;;;;;;;9.85;47.80;99163.09;4954776;28;20470;-68
2021/11/24 12:06:52;;;;;;;6.15;3.65;;;;;;;11.39;44.74;99150.03;4954504;28;20474;-68
2021/11/24 12:09:28;;;;;;;6.00;2.65;;;;;;;11.14;45.03;99148.69;4954924;28;20023;-70
2021/11/24 12:14:55;;;;;;;2.50;2.30;;;;;;;8.05;52.86;99156.28;4954469;29;20401;-70
2021/11/24 12:17:30;;;;;;;6.75;2.10;;;;;;;7.40;54.15;99151.16;4954219;29;20031;-70
2021/11/24 12:19:58;;;;;;;3.38;2.63;;;;;;;6.95;57.24;99136.47;4953789;28;20034;-70
2021/11/24 12:22:49;;;;;;;3.10;2.45;;;;;;;6.38;58.68;99141.44;4954370;29;20042;-69
2021/11/24 12:25:18;;;;;;;6.70;3.75;;;;;;;6.28;60.27;99131.94;4954272;28;20081;-69
2021/11/24 12:28:07;;;;;;;2.63;1.92;;;;;;;6.09;60.83;99135.25;4954299;28;20389;-69
2021/11/24 12:30:33;;;;;;;5.05;2.45;;;;;;;6.26;60.39;99118.22;4946999;28;20070;-68
2021/11/24 12:32:59;;;;;;;3.95;3.15;;;;;;;6.30;59.68;99114.81;4952827;29;20530;-68
2021/11/24 12:35:24;;;;;;;5.30;3.05;;;;;;;6.48;61.59;99113.13;4954000;28;20038;-68
2021/11/24 12:37:50;;;;;;;1.70;1.58;;;;;;;6.15;60.46;99114.72;4953845;28;20023;-68
2021/11/24 12:40:25;;;;;;;1.98;1.80;;;;;;;5.50;62.64;99118.56;4953855;29;20039;-68
2021/11/24 12:43:01;;;;;;;2.40;2.08;;;;;;;5.72;61.56;99114.44;4953957;28;20035;-69
2021/11/24 12:45:28;;;;;;;4.43;2.15;;;;;;;5.61;61.79;99119.50;4953957;28;20105;-69
2021/11/24 12:48:02;;;;;;;1.98;1.83;;;;;;;5.32;62.56;99109.00;4934050;28;20392;-68
2021/11/24 12:50:29;;;;;;;5.80;3.25;;;;;;;5.09;63.41;99110.50;4962962;28;20038;-68
2021/11/24 12:53:03;;;;;;;4.53;1.90;;;;;;;5.10;63.66;99107.09;4953902;28;20092;-69
2021/11/24 12:55:30;;;;;;;2.33;1.77;;;;;;;5.05;63.18;99101.03;4953786;28;20023;-64
2021/11/24 12:57:55;;;;;;;4.55;3.70;;;;;;;5.16;63.39;99095.16;4953852;28;20035;-64
2021/11/24 13:00:28;;;;;;;4.65;2.63;;;;;;;5.23;63.09;99083.25;4948284;28;20035;-64
2021/11/24 13:02:54;;;;;;;3.28;3.00;;;;;;;5.24;62.74;99084.09;4951833;29;20043;-64
2021/11/24 13:05:20;;;;;;;3.10;2.90;;;;;;;5.10;64.72;99081.41;4953623;28;20051;-64
2021/11/24 13:07:55;;;;;;;4.53;2.85;;;;;;;4.83;63.81;99082.00;4904599;28;20517;-64
2021/11/24 13:10:23;;;;;;;2.40;2.28;;;;;;;5.11;64.21;99080.56;4953572;28;20709;-64
2021/11/24 13:12:48;;;;;;;3.53;3.03;;;;;;;4.89;64.07;99080.38;4953804;28;20035;-64
2021/11/24 13:15:13;;;;;;;3.35;2.88;;;;;;;4.79;63.91;99076.00;4953441;29;20038;-65
2021/11/24 13:17:46;;;;;;;2.78;2.58;;;;;;;4.61;65.02;99075.81;4953736;28;20031;-64
2021/11/24 13:20:17;;;;;;;5.05;3.17;;;;;;;4.87;64.32;99064.06;4953434;28;20171;-64
2021/11/24 13:22:51;;;;;;;5.05;4.13;;;;;;;4.63;65.29;99066.41;4953851;28;20151;-65
2021/11/24 13:25:32;;;;;;;7.05;4.07;;;;;;;4.42;66.21;99069.59;4953419;28;20038;-65
2021/11/24 13:28:05;;;;;;;7.32;3.17;;;;;;;4.15;67.08;99059.88;4953562;28;20616;-65
2021/11/24 13:30:37;;;;;;;2.85;2.40;;;;;;;4.11;67.26;99056.44;4946672;28;20036;-65
2021/11/24 13:33:07;;;;;;;3.30;2.63;;;;;;;4.46;66.83;99050.84;4954413;28;20038;-64
2021/11/24 13:35:55;;;;;;;2.60;2.45;;;;;;;4.32;67.11;99050.69;4957182;28;20473;-65
2021/11/24 13:38:25;;;;;;;2.83;2.53;;;;;;;4.08;68.06;99047.84;4948041;29;20152;-64
2021/11/24 13:40:56;;;;;;;5.32;2.78;;;;;;;4.18;67.68;99043.69;4907903;28;20045;-64
2021/11/24 13:43:34;;;;;;;2.33;2.20;;;;;;;3.83;68.83;99041.53;4957142;28;20035;-64
2021/11/24 13:46:16;;;;;;;2.50;2.17;;;;;;;3.64;69.89;99050.69;4956939;28;20046;-64
2021/11/24 13:48:43;;;;;;;6.68;3.75;;;;;;;3.72;69.92;99033.69;4957170;28;20043;-64
2021/11/24 13:51:11;;;;;;;4.00;3.65;;;;;;;3.49;70.57;99045.34;4956811;28;20026;-64
2021/11/24 13:53:39;;;;;;;3.38;1.85;;;;;;;3.47;70.04;99031.63;4957092;28;20374;-64
2021/11/24 13:56:20;;;;;;;3.22;2.92;;;;;;;3.25;71.04;99036.44;4956801;28;20111;-64
2021/11/24 13:58:54;;;;;;;3.47;3.17;;;;;;;3.16;71.34;99049.09;4956830;28;20070;-64
2021/11/24 14:01:27;;;;;;;10.18;2.40;;;;;;;3.10;71.69;99038.78;4948779;28;20097;-64
2021/11/24 14:03:56;;;;;;;2.13;2.00;;;;;;;3.27;71.51;99039.88;4956901;28;20102;-64
2021/11/24 14:06:46;;;;;;;2.67;2.45;;;;;;;3.06;71.93;99045.53;4956515;28;20097;-64
2021/11/24 14:09:31;;;;;;;2.63;2.25;;;;;;;2.83;72.32;99046.84;4956562;28;20027;-64
2021/11/24 14:11:58;;;;;;;2.92;2.72;;;;;;;2.79;73.40;99030.56;4957063;28;20035;-64
2021/11/24 14:14:26;;;;;;;3.78;2.85;;;;;;;2.69;73.50;99028.69;4956574;28;20400;-64
2021/11/24 14:17:01;;;;;;;2.80;2.53;;;;;;;2.52;74.10;99032.66;4956304;28;20114;-64
2021/11/24 14:19:32;;;;;;;1.98;1.88;;;;;;;2.63;73.54;99036.28;4956486;28;20035;-64
2021/11/24 14:21:58;;;;;;;2.67;2.10;;;;;;;2.45;74.28;99028.25;4956478;28;20038;-64
2021/11/24 14:24:24;;;;;;;4.22;1.88;;;;;;;2.18;74.45;99029.47;4956467;28;20054;-64
2021/11/24 14:26:51;;;;;;;4.78;3.60;;;;;;;2.02;75.37;99032.53;4956273;28;20472;-64
2021/11/24 14:29:17;;;;;;;1.95;1.83;;;;;;;1.90;76.27;99029.75;4955842;28;20027;-64
2021/11/24 14:31:58;;;;;;;3.08;2.92;;;;;;;1.57;76.79;99038.41;4940506;28;20397;-64
2021/11/24 14:34:25;;;;;;;2.58;2.22;;;;;;;1.63;77.30;99028.34;4937028;29;20042;-65
2021/11/24 14:36:52;;;;;;;4.13;3.00;;;;;;;1.69;77.08;99023.38;4937042;29;20385;-66
2021/11/24 14:39:18;;;;;;;2.00;1.90;;;;;;;1.75;77.31;99023.50;4936830;29;20031;-66
2021/11/24 14:41:47;;;;;;;8.10;2.72;;;;;;;1.70;76.59;99025.09;4936914;29;20445;-66
2021/11/24 14:44:14;;;;;;;1.80;1.73;;;;;;;1.61;76.43;99022.34;4936542;29;20083;-66
2021/11/24 14:46:40;;;;;;;2.83;1.10;;;;;;;1.58;76.46;99029.94;4936840;29;20039;-66
2021/11/24 14:49:05;;;;;;;1.80;1.52;;;;;;;1.51;77.01;99022.97;4936783;29;20031;-66
2021/11/24 14:51:31;;;;;;;3.65;3.45;;;;;;;1.34;77.54;99027.69;4936966;29;20110;-66
2021/11/24 14:53:58;;;;;;;1.13;1.13;;;;;;;1.23;77.82;99027.44;4936759;28;20024;-66
2021/11/24 14:56:24;;;;;;;2.03;1.95;;;;;;;1.14;78.23;99027.22;4936612;29;20034;-66
2021/11/24 14:58:49;;;;;;;4.55;2.42;;;;;;;1.05;78.41;99026.16;4937391;29;20028;-66
2021/11/24 15:01:15;;;;;;;3.67;2.70;;;;;;;1.02;78.73;99027.81;4947557;28;20023;-66
2021/11/24 15:03:40;;;;;;;1.40;1.30;;;;;;;0.92;79.31;99025.00;4955677;28;20106;-66
2021/11/24 15:06:05;;;;;;;2.47;2.22;;;;;;;0.88;79.54;99018.97;4955498;28;20027;-68
2021/11/24 15:08:31;;;;;;;6.00;3.22;;;;;;;0.81;80.13;99021.31;4955673;29;20039;-68
2021/11/24 15:10:58;;;;;;;3.97;3.65;;;;;;;0.70;80.52;99021.94;4955335;28;20034;-68
2021/11/24 15:13:24;;;;;;;2.15;2.05;;;;;;;0.63;81.13;99014.97;4955732;28;20063;-68
2021/11/24 15:15:50;;;;;;;2.25;1.98;;;;;;;0.58;81.25;99013.97;4955437;28;20114;-69
2021/11/24 15:18:16;;;;;;;1.80;1.67;;;;;;;0.52;82.27;99019.75;4955478;28;20031;-68
2021/11/24 15:20:42;;;;;;;1.98;1.92;;;;;;;0.50;82.12;99016.31;4955223;29;20121;-68
2021/11/24 15:23:07;;;;;;;7.45;3.20;;;;;;;0.46;82.38;99016.19;4955347;28;20607;-69
2021/11/24 15:25:36;;;;;;;1.73;1.65;;;;;;;0.40;82.63;99013.50;4955059;28;20047;-69
2021/11/24 15:28:03;;;;;;;5.80;3.08;;;;;;;0.37;82.75;99010.88;4955477;28;20027;-69
2021/11/24 15:30:28;;;;;;;2.28;2.17;;;;;;;0.43;83.28;99013.56;4948618;28;20098;-69
2021/11/24 15:32:54;;;;;;;2.97;2.53;;;;;;;0.34;83.06;99013.31;4953348;29;20481;-68
2021/11/24 15:35:20;;;;;;;1.45;1.38;;;;;;;0.35;83.10;99004.88;4955035;28;20366;-68
2021/11/24 15:37:46;;;;;;;1.88;1.80;;;;;;;0.35;82.95;99004.88;4955116;28;20023;-68
2021/11/24 15:40:11;;;;;;;5.10;3.65;;;;;;;0.31;82.97;99003.94;4954681;29;20031;-68
2021/11/24 15:42:37;;;;;;;3.15;2.22;;;;;;;0.33;82.93;99009.06;4954982;28;20102;-68
2021/11/24 15:45:03;;;;;;;4.22;2.88;;;;;;;0.28;82.90;99008.06;4905566;28;20394;-68
2021/11/24 15:47:28;;;;;;;2.88;2.38;;;;;;;0.24;83.25;98992.72;4954525;28;20107;-68
2021/11/24 15:49:54;;;;;;;3.08;2.65;;;;;;;0.22;82.93;98994.34;4954565;29;20500;-68
2021/11/24 15:52:19;;;;;;;1.95;1.88;;;;;;;0.32;82.82;98992.03;4954732;28;20043;-69
2021/11/24 15:54:45;;;;;;;4.15;2.90;;;;;;;0.33;82.86;98996.31;4954160;28;20027;-69
2021/11/24 15:57:11;;;;;;;2.58;2.42;;;;;;;0.33;82.87;98992.06;4945956;28;20027;-68
2021/11/24 15:59:37;;;;;;;1.52;1.52;;;;;;;0.29;82.44;98994.50;4954580;29;20413;-68
2021/11/24 16:02:03;;;;;;;2.90;2.13;;;;;;;0.43;82.66;98988.94;4946589;29;20023;-69